60FL weather

Jupiter Medical Center Heliport
Jupiter, Florida, United States

Public forecast

Using degrees Fahrenheit for public forecast. Weather courtesy of forecast.io.

METAR (pilot weather report)

Closest report is Palm Beach International Airport, 14.6 nm (27.0 km) S. Retrieved 2019/06/17 09:53 UTC (33 minutes ago):

KPBI 170953Z 12007KT 7SM -RA SCT018 BKN065 OVC095 24/22 A3004 RMK AO2 PK WND 15026/0927 RAB05 SLP173 P0013 T02390222

TAF (pilot weather forecast)

Closest forecast is Palm Beach International Airport, 14.6 nm (27.0 km) S. Retrieved 2019/06/17 06:35 UTC (4 hours ago):

TAF COR KPBI 170532Z 1706/1806 VRB06KT P6SM VCSH SCT025 BKN070 BKN200 TEMPO 1706/1709 VRB15KT 3SM SHRA BKN025 FM170900 15008KT P6SM SHRA SCT025 BKN050 BKN080 FM171400 15011KT P6SM SHRA VCTS SCT025CB BKN050 FM180000 13008KT P6SM VCSH SCT025 BKN070